Time;durP1;ratioP1;P1;durP2;ratioP2;P2;SDS_P1;SDS_P2;PMS_P1;PMS_P2;Temp;Humidity;BMP_temperature;BMP_pressure;BME280_temperature;BME280_humidity;BME280_pressure;Samples;Min_cycle;Max_cycle;Signal;HPM_P1;HPM_P2
2021/01/01 00:01:24;;;;;;;;;;;27.30;46.90;;;;;;5075014;28;19908;-54
2021/01/01 00:03:50;;;;;;;;;;;27.40;47.10;;;;;;5075073;28;20320;-72
2021/01/01 00:06:15;;;;;;;;;;;27.40;46.70;;;;;;5074599;28;19928;-61
2021/01/01 00:08:41;;;;;;;;;;;27.40;46.60;;;;;;5074938;28;19986;-58
2021/01/01 00:11:06;;;;;;;;;;;27.30;47.20;;;;;;5074741;28;20385;-63
2021/01/01 00:13:32;;;;;;;;;;;27.20;47.50;;;;;;5074552;28;19908;-71
2021/01/01 00:15:57;;;;;;;;;;;27.10;47.40;;;;;;5074647;28;19916;-66
2021/01/01 00:18:23;;;;;;;;;;;27.20;47.40;;;;;;5075903;28;20301;-65
2021/01/01 00:20:48;;;;;;;;;;;27.30;46.80;;;;;;5093746;28;20293;-64
2021/01/01 00:23:14;;;;;;;;;;;27.30;46.10;;;;;;5074327;28;19954;-69
2021/01/01 00:25:39;;;;;;;;;;;27.30;46.40;;;;;;5074413;28;19922;-67
2021/01/01 00:28:05;;;;;;;;;;;27.30;46.40;;;;;;5074239;28;20291;-62
2021/01/01 00:30:30;;;;;;;;;;;27.20;47.20;;;;;;5073333;28;19977;-69
2021/01/01 00:32:55;;;;;;;;;;;27.20;46.50;;;;;;5090673;28;19916;-62
2021/01/01 00:35:21;;;;;;;;;;;27.30;46.30;;;;;;5094513;28;20010;-59
2021/01/01 00:37:46;;;;;;;;;;;27.30;46.70;;;;;;5082077;28;19962;-61
2021/01/01 00:40:12;;;;;;;;;;;27.20;46.90;;;;;;5073254;28;19909;-63
2021/01/01 00:42:38;;;;;;;;;;;27.20;46.60;;;;;;5078588;28;20377;-63
2021/01/01 00:45:04;;;;;;;;;;;27.20;46.70;;;;;;5094097;28;20278;-63
2021/01/01 00:47:29;;;;;;;;;;;27.20;46.40;;;;;;5079061;28;20401;-61
2021/01/01 00:49:55;;;;;;;;;;;27.20;46.20;;;;;;5087531;28;19908;-61
2021/01/01 00:52:20;;;;;;;;;;;27.20;46.20;;;;;;5078695;28;19960;-63
2021/01/01 00:54:46;;;;;;;;;;;27.20;45.70;;;;;;5074158;28;19908;-70
2021/01/01 00:57:11;;;;;;;;;;;27.20;45.90;;;;;;5074045;28;20420;-69
2021/01/01 00:59:37;;;;;;;;;;;27.30;45.60;;;;;;5073693;28;19919;-62
2021/01/01 01:02:02;;;;;;;;;;;27.30;45.90;;;;;;5073618;28;19996;-68
2021/01/01 01:04:28;;;;;;;;;;;27.20;45.90;;;;;;5083317;28;19908;-63
2021/01/01 01:06:53;;;;;;;;;;;27.20;45.80;;;;;;5093818;28;19930;-64
2021/01/01 01:09:18;;;;;;;;;;;27.20;45.80;;;;;;5093971;28;19953;-65
2021/01/01 01:11:44;;;;;;;;;;;27.20;45.60;;;;;;5093175;28;19914;-69
2021/01/01 01:14:09;;;;;;;;;;;27.20;45.70;;;;;;5073436;28;19920;-66
2021/01/01 01:16:35;;;;;;;;;;;27.20;45.40;;;;;;5090306;28;19914;-68
2021/01/01 01:19:00;;;;;;;;;;;27.20;45.90;;;;;;5093982;28;19919;-61
2021/01/01 01:21:26;;;;;;;;;;;27.10;46.20;;;;;;5085897;28;19954;-61
2021/01/01 01:23:52;;;;;;;;;;;27.20;45.70;;;;;;5073629;28;19913;-75
2021/01/01 01:26:17;;;;;;;;;;;27.20;45.50;;;;;;5073254;28;19986;-77
2021/01/01 01:28:43;;;;;;;;;;;27.20;45.60;;;;;;5072280;28;19932;-65
2021/01/01 01:31:08;;;;;;;;;;;27.20;45.10;;;;;;5059962;28;19997;-68
2021/01/01 01:33:34;;;;;;;;;;;27.30;45.60;;;;;;5054557;28;20263;-67
2021/01/01 01:36:00;;;;;;;;;;;27.20;45.40;;;;;;5075585;28;19912;-74
2021/01/01 01:38:26;;;;;;;;;;;27.30;45.10;;;;;;5093712;28;20410;-63
2021/01/01 01:40:51;;;;;;;;;;;27.30;45.30;;;;;;5077167;28;19960;-64
2021/01/01 01:43:17;;;;;;;;;;;27.30;45.10;;;;;;5073282;28;19915;-63
2021/01/01 01:45:42;;;;;;;;;;;27.40;45.10;;;;;;5073202;28;20518;-72
2021/01/01 01:48:08;;;;;;;;;;;27.30;45.10;;;;;;5073038;28;19912;-72
2021/01/01 01:50:33;;;;;;;;;;;27.40;45.10;;;;;;5088755;28;19916;-65
2021/01/01 01:52:59;;;;;;;;;;;27.30;44.60;;;;;;5088316;28;19909;-69
2021/01/01 01:55:24;;;;;;;;;;;27.30;44.70;;;;;;5088606;28;19951;-65
2021/01/01 01:57:50;;;;;;;;;;;27.30;44.90;;;;;;5088509;28;19913;-62
2021/01/01 02:00:39;;;;;;;;;;;27.30;44.70;;;;;;5073139;28;19909;-70
2021/01/01 02:03:04;;;;;;;;;;;27.30;44.50;;;;;;5076733;28;19912;-70
2021/01/01 02:05:30;;;;;;;;;;;27.30;44.40;;;;;;5093072;28;19917;-58
2021/01/01 02:07:55;;;;;;;;;;;27.30;44.70;;;;;;5092963;28;19908;-71
2021/01/01 02:10:21;;;;;;;;;;;27.30;44.80;;;;;;5092002;28;19909;-64
2021/01/01 02:12:46;;;;;;;;;;;27.30;44.90;;;;;;5092994;28;20374;-61
2021/01/01 02:15:12;;;;;;;;;;;27.30;44.80;;;;;;5093088;28;19952;-71
2021/01/01 02:17:37;;;;;;;;;;;27.30;44.80;;;;;;5090414;28;19953;-61
2021/01/01 02:20:06;;;;;;;;;;;27.30;44.80;;;;;;5092282;28;19916;-61
2021/01/01 02:22:33;;;;;;;;;;;27.30;44.60;;;;;;5087965;28;19916;-61
2021/01/01 02:24:58;;;;;;;;;;;27.30;44.50;;;;;;5097179;28;19915;-63
2021/01/01 02:27:24;;;;;;;;;;;27.30;44.50;;;;;;5092040;28;19928;-63
2021/01/01 02:29:49;;;;;;;;;;;27.30;44.30;;;;;;5080753;28;19912;-65
2021/01/01 02:32:14;;;;;;;;;;;27.30;43.90;;;;;;5056783;28;19913;-60
2021/01/01 02:34:40;;;;;;;;;;;27.30;44.10;;;;;;5079070;28;19935;-66
2021/01/01 02:37:05;;;;;;;;;;;27.30;44.00;;;;;;5096747;28;19988;-67
2021/01/01 02:39:31;;;;;;;;;;;27.30;44.10;;;;;;5096802;28;19915;-63
2021/01/01 02:41:57;;;;;;;;;;;27.30;44.30;;;;;;5095769;28;20269;-62
2021/01/01 02:44:22;;;;;;;;;;;27.20;44.50;;;;;;5076609;28;19909;-59
2021/01/01 02:46:48;;;;;;;;;;;27.20;44.30;;;;;;5076326;28;20347;-60
2021/01/01 02:49:13;;;;;;;;;;;27.20;45.10;;;;;;5076219;28;19913;-59
2021/01/01 02:51:38;;;;;;;;;;;27.20;44.30;;;;;;5084637;28;19956;-61
2021/01/01 02:54:04;;;;;;;;;;;27.20;44.30;;;;;;5096711;28;20266;-65
2021/01/01 02:56:29;;;;;;;;;;;27.10;44.40;;;;;;5083022;28;19959;-61
2021/01/01 02:58:55;;;;;;;;;;;27.10;44.80;;;;;;5082913;28;19912;-61
2021/01/01 03:01:20;;;;;;;;;;;27.10;44.70;;;;;;5096615;28;20417;-58
2021/01/01 03:03:46;;;;;;;;;;;27.10;44.50;;;;;;5077530;28;19912;-57
2021/01/01 03:06:11;;;;;;;;;;;27.20;44.40;;;;;;5076107;28;19967;-59
2021/01/01 03:08:37;;;;;;;;;;;27.20;44.50;;;;;;5075818;28;20290;-58
2021/01/01 03:11:02;;;;;;;;;;;27.20;44.30;;;;;;5075829;28;19961;-64
2021/01/01 03:13:28;;;;;;;;;;;27.20;44.30;;;;;;5076045;28;19916;-63
2021/01/01 03:15:53;;;;;;;;;;;27.20;44.20;;;;;;5075988;28;20348;-62
2021/01/01 03:18:20;;;;;;;;;;;27.20;44.20;;;;;;5091165;28;19912;-62
2021/01/01 03:20:46;;;;;;;;;;;27.20;44.10;;;;;;5076429;28;19920;-60
2021/01/01 03:23:11;;;;;;;;;;;27.20;44.10;;;;;;5095831;28;19908;-64
2021/01/01 03:25:36;;;;;;;;;;;27.20;44.20;;;;;;5087790;28;19920;-76
2021/01/01 03:28:02;;;;;;;;;;;27.20;44.10;;;;;;5086317;28;20381;-75
2021/01/01 03:30:27;;;;;;;;;;;27.20;44.30;;;;;;5092350;28;19913;-69
2021/01/01 03:32:53;;;;;;;;;;;27.20;44.10;;;;;;5075728;28;19913;-61
2021/01/01 03:35:18;;;;;;;;;;;27.20;44.30;;;;;;5075699;28;20305;-74
2021/01/01 03:37:44;;;;;;;;;;;27.20;44.20;;;;;;5075418;28;19999;-65
2021/01/01 03:40:09;;;;;;;;;;;27.10;44.40;;;;;;5075629;28;19946;-65
2021/01/01 03:42:35;;;;;;;;;;;27.10;44.30;;;;;;5075507;28;19919;-70
2021/01/01 03:45:00;;;;;;;;;;;27.10;44.30;;;;;;5091934;28;19916;-64
2021/01/01 03:47:26;;;;;;;;;;;27.20;44.30;;;;;;5095394;28;19962;-67
2021/01/01 03:49:51;;;;;;;;;;;27.20;43.90;;;;;;5095637;28;19908;-63
2021/01/01 03:52:17;;;;;;;;;;;27.20;43.80;;;;;;5081913;28;19912;-65
2021/01/01 03:54:42;;;;;;;;;;;27.30;43.80;;;;;;5075028;28;19958;-64
2021/01/01 03:57:08;;;;;;;;;;;27.20;43.80;;;;;;5081808;28;20385;-64
2021/01/01 03:59:33;;;;;;;;;;;27.20;43.90;;;;;;5077419;28;20367;-70
2021/01/01 04:01:59;;;;;;;;;;;27.20;43.80;;;;;;5078432;28;19912;-65
2021/01/01 04:04:24;;;;;;;;;;;27.20;43.60;;;;;;5095066;28;19976;-66
2021/01/01 04:06:50;;;;;;;;;;;27.20;43.80;;;;;;5095264;28;19956;-64
2021/01/01 04:09:15;;;;;;;;;;;27.20;43.70;;;;;;5094968;28;19912;-61
2021/01/01 04:11:41;;;;;;;;;;;27.20;43.80;;;;;;5095223;28;20002;-58
2021/01/01 04:14:07;;;;;;;;;;;27.20;43.60;;;;;;5094990;28;20431;-57
2021/01/01 04:16:32;;;;;;;;;;;27.20;43.40;;;;;;5093382;28;19909;-54
2021/01/01 04:18:58;;;;;;;;;;;27.20;43.60;;;;;;5074854;28;19913;-57
2021/01/01 04:21:23;;;;;;;;;;;27.20;43.70;;;;;;5079944;28;19913;-64
2021/01/01 04:23:49;;;;;;;;;;;27.20;42.90;;;;;;5094925;28;19965;-68
2021/01/01 04:26:14;;;;;;;;;;;27.30;44.10;;;;;;5094816;28;19916;-61
2021/01/01 04:28:40;;;;;;;;;;;27.30;43.00;;;;;;5092784;28;19920;-63
2021/01/01 04:31:05;;;;;;;;;;;27.30;43.20;;;;;;5085725;28;19913;-63
2021/01/01 04:33:31;;;;;;;;;;;27.30;43.40;;;;;;5074219;28;19919;-68
2021/01/01 04:35:56;;;;;;;;;;;27.30;43.50;;;;;;5074531;28;19919;-62
2021/01/01 04:38:22;;;;;;;;;;;27.20;43.50;;;;;;5074151;28;19916;-62
2021/01/01 04:40:47;;;;;;;;;;;27.20;43.50;;;;;;5073593;28;19919;-62
2021/01/01 04:43:13;;;;;;;;;;;27.30;43.30;;;;;;5074024;28;19915;-65
2021/01/01 04:45:38;;;;;;;;;;;27.20;43.40;;;;;;5073733;28;19924;-67
2021/01/01 04:48:04;;;;;;;;;;;27.30;43.20;;;;;;5073977;28;19912;-63
2021/01/01 04:50:29;;;;;;;;;;;27.20;43.40;;;;;;5073880;28;19919;-63
2021/01/01 04:52:55;;;;;;;;;;;27.30;43.30;;;;;;5072172;28;19913;-67
2021/01/01 04:55:21;;;;;;;;;;;27.20;43.30;;;;;;5053883;28;20355;-61
2021/01/01 04:57:48;;;;;;;;;;;27.30;43.20;;;;;;5069194;28;19962;-64
2021/01/01 05:00:15;;;;;;;;;;;27.30;43.40;;;;;;5092254;28;20393;-65
2021/01/01 05:02:40;;;;;;;;;;;27.30;43.40;;;;;;5093961;28;19915;-68
2021/01/01 05:05:06;;;;;;;;;;;27.20;43.30;;;;;;5094167;28;19908;-63
2021/01/01 05:07:31;;;;;;;;;;;27.20;43.20;;;;;;5076906;28;19912;-65
2021/01/01 05:09:57;;;;;;;;;;;27.30;43.30;;;;;;5073812;28;19968;-61
2021/01/01 05:12:29;;;;;;;;;;;27.20;43.20;;;;;;5089171;28;19912;-61
2021/01/01 05:14:54;;;;;;;;;;;27.20;43.20;;;;;;5073822;28;19913;-63
2021/01/01 05:17:30;;;;;;;;;;;27.30;43.20;;;;;;5077116;28;19919;-62
2021/01/01 05:19:55;;;;;;;;;;;27.30;43.10;;;;;;5094059;28;20006;-70
2021/01/01 05:22:21;;;;;;;;;;;27.30;43.20;;;;;;5092407;28;20000;-69
2021/01/01 05:24:47;;;;;;;;;;;27.30;43.00;;;;;;5083457;28;19919;-74
2021/01/01 05:27:16;;;;;;;;;;;27.30;43.00;;;;;;5073209;28;19973;-71
2021/01/01 05:29:42;;;;;;;;;;;27.30;42.80;;;;;;5073451;28;19916;-61
2021/01/01 05:32:08;;;;;;;;;;;27.30;42.70;;;;;;5073726;28;19912;-58
2021/01/01 05:34:40;;;;;;;;;;;27.30;42.80;;;;;;5085151;28;19919;-75
2021/01/01 05:37:05;;;;;;;;;;;27.30;42.60;;;;;;5073318;28;19955;-66
2021/01/01 05:39:31;;;;;;;;;;;27.30;42.60;;;;;;5073268;28;20325;-70
2021/01/01 05:41:56;;;;;;;;;;;27.30;42.60;;;;;;5071971;28;19908;-68
2021/01/01 05:44:25;;;;;;;;;;;27.30;42.80;;;;;;5073110;28;19909;-60
2021/01/01 05:46:57;;;;;;;;;;;27.20;42.70;;;;;;5073136;28;20382;-62
2021/01/01 05:49:23;;;;;;;;;;;27.30;42.80;;;;;;5081932;28;19965;-62
2021/01/01 05:52:18;;;;;;;;;;;27.20;42.50;;;;;;5073103;28;20015;-61
2021/01/01 05:54:47;;;;;;;;;;;27.20;42.40;;;;;;5072242;28;19912;-62
2021/01/01 05:57:13;;;;;;;;;;;27.20;42.50;;;;;;5072375;28;19915;-68
2021/01/01 05:59:38;;;;;;;;;;;27.30;42.60;;;;;;5073157;28;19912;-73
2021/01/01 06:02:04;;;;;;;;;;;27.20;42.70;;;;;;5093428;28;19913;-62
2021/01/01 06:04:30;;;;;;;;;;;27.20;42.60;;;;;;5092955;28;20011;-62
2021/01/01 06:06:55;;;;;;;;;;;27.20;42.60;;;;;;5091160;28;19920;-67
2021/01/01 06:09:21;;;;;;;;;;;27.20;42.50;;;;;;5092158;28;19908;-66
2021/01/01 06:11:56;;;;;;;;;;;27.20;42.60;;;;;;5093101;28;19913;-79
2021/01/01 06:14:23;;;;;;;;;;;27.20;42.60;;;;;;5073770;28;19920;-61
2021/01/01 06:16:49;;;;;;;;;;;27.20;42.30;;;;;;5070926;28;19924;-68
2021/01/01 06:19:14;;;;;;;;;;;27.20;42.70;;;;;;5071593;28;20278;-71
2021/01/01 06:21:41;;;;;;;;;;;27.20;42.60;;;;;;5091681;28;19908;-51
2021/01/01 06:24:07;;;;;;;;;;;27.20;42.70;;;;;;5092880;28;20388;-57
2021/01/01 06:26:32;;;;;;;;;;;27.20;42.50;;;;;;5091480;28;19916;-57
2021/01/01 06:28:57;;;;;;;;;;;27.20;42.50;;;;;;5091539;28;20317;-58
2021/01/01 06:31:23;;;;;;;;;;;27.20;42.60;;;;;;5082576;28;19917;-61
2021/01/01 06:33:48;;;;;;;;;;;27.10;42.50;;;;;;5072775;28;19912;-67
2021/01/01 06:36:32;;;;;;;;;;;27.10;42.80;;;;;;5076374;28;20382;-70
2021/01/01 06:38:58;;;;;;;;;;;27.20;42.60;;;;;;5093001;28;19908;-71
2021/01/01 06:41:42;;;;;;;;;;;27.20;42.60;;;;;;5092672;28;19985;-72
2021/01/01 06:44:08;;;;;;;;;;;27.20;42.80;;;;;;5092837;28;19930;-72
2021/01/01 06:46:34;;;;;;;;;;;27.10;42.60;;;;;;5085568;28;19936;-72
2021/01/01 06:49:00;;;;;;;;;;;27.20;42.50;;;;;;5072557;28;19913;-72
2021/01/01 06:51:27;;;;;;;;;;;27.10;42.40;;;;;;5072486;28;19909;-73
2021/01/01 06:53:52;;;;;;;;;;;27.10;42.20;;;;;;5068291;28;19962;-73
2021/01/01 06:56:18;;;;;;;;;;;27.10;42.20;;;;;;5078203;28;19967;-72
2021/01/01 06:58:43;;;;;;;;;;;27.00;42.20;;;;;;5072689;28;19916;-72
2021/01/01 07:01:15;;;;;;;;;;;27.00;42.30;;;;;;5072668;28;20367;-72
2021/01/01 07:03:41;;;;;;;;;;;27.00;42.20;;;;;;5084942;28;20263;-72
2021/01/01 07:06:06;;;;;;;;;;;27.00;42.20;;;;;;5090863;28;19980;-72
2021/01/01 07:08:44;;;;;;;;;;;27.00;42.20;;;;;;5091787;28;19919;-73
2021/01/01 07:11:10;;;;;;;;;;;27.00;42.20;;;;;;5075932;28;20415;-73
2021/01/01 07:13:44;;;;;;;;;;;26.90;42.10;;;;;;5076914;28;19916;-73
2021/01/01 07:16:10;;;;;;;;;;;27.00;42.10;;;;;;5076160;28;19957;-73
2021/01/01 07:18:36;;;;;;;;;;;27.00;42.10;;;;;;5075750;28;20003;-73
2021/01/01 07:21:04;;;;;;;;;;;26.90;42.00;;;;;;5081896;28;20346;-73
2021/01/01 07:23:30;;;;;;;;;;;26.90;42.00;;;;;;5095893;28;20388;-73
2021/01/01 07:25:56;;;;;;;;;;;26.90;41.90;;;;;;5095942;28;19916;-72
2021/01/01 07:28:24;;;;;;;;;;;26.90;41.90;;;;;;5095888;28;19928;-72
2021/01/01 07:30:50;;;;;;;;;;;26.90;41.90;;;;;;5082390;28;19916;-73
2021/01/01 07:33:25;;;;;;;;;;;26.90;41.80;;;;;;5096017;28;19915;-74
2021/01/01 07:35:51;;;;;;;;;;;26.90;41.90;;;;;;5095915;28;19912;-74
2021/01/01 07:38:17;;;;;;;;;;;26.90;41.90;;;;;;5085302;28;19936;-73
2021/01/01 07:40:43;;;;;;;;;;;26.90;41.80;;;;;;5075384;28;19909;-73
2021/01/01 07:43:08;;;;;;;;;;;26.90;41.80;;;;;;5076633;28;19912;-73
2021/01/01 07:45:34;;;;;;;;;;;26.90;41.80;;;;;;5075467;28;20251;-73
2021/01/01 07:47:59;;;;;;;;;;;26.90;41.70;;;;;;5075481;28;19987;-73
2021/01/01 07:50:25;;;;;;;;;;;26.90;41.70;;;;;;5075425;28;19912;-74
2021/01/01 07:52:50;;;;;;;;;;;26.90;41.70;;;;;;5093989;28;19916;-74
2021/01/01 07:55:22;;;;;;;;;;;26.90;41.60;;;;;;5093943;28;19965;-73
2021/01/01 07:57:47;;;;;;;;;;;26.90;41.60;;;;;;5074807;28;19966;-74
2021/01/01 08:00:13;;;;;;;;;;;26.90;41.60;;;;;;5075006;28;19912;-73
2021/01/01 08:02:39;;;;;;;;;;;26.90;41.60;;;;;;5074943;28;20435;-74
2021/01/01 08:05:04;;;;;;;;;;;26.90;41.60;;;;;;5075320;28;19920;-73
2021/01/01 08:07:30;;;;;;;;;;;26.90;41.60;;;;;;5075257;28;19908;-73
2021/01/01 08:09:56;;;;;;;;;;;26.90;41.60;;;;;;5081638;28;19916;-73
2021/01/01 08:12:21;;;;;;;;;;;26.90;41.60;;;;;;5092870;28;19915;-74
2021/01/01 08:14:47;;;;;;;;;;;26.90;41.60;;;;;;5074983;28;19909;-74
2021/01/01 08:17:19;;;;;;;;;;;26.90;41.60;;;;;;5074604;28;19909;-74
2021/01/01 08:19:44;;;;;;;;;;;26.80;41.50;;;;;;5074021;28;19919;-74
2021/01/01 08:22:10;;;;;;;;;;;26.80;41.50;;;;;;5090409;28;19909;-74
2021/01/01 08:24:35;;;;;;;;;;;26.90;41.60;;;;;;5090363;28;20293;-74
2021/01/01 08:27:01;;;;;;;;;;;26.90;41.50;;;;;;5076649;28;20069;-73
2021/01/01 08:29:27;;;;;;;;;;;26.80;41.40;;;;;;5094669;28;19920;-74
2021/01/01 08:31:52;;;;;;;;;;;26.80;41.40;;;;;;5093713;28;20312;-75
2021/01/01 08:34:17;;;;;;;;;;;26.90;41.40;;;;;;5093372;28;19908;-75
2021/01/01 08:36:43;;;;;;;;;;;26.80;41.30;;;;;;5083340;28;19908;-74
2021/01/01 08:39:10;;;;;;;;;;;26.80;41.30;;;;;;5074502;28;20363;-74
2021/01/01 08:41:40;;;;;;;;;;;26.90;41.30;;;;;;5074023;28;20425;-74
2021/01/01 08:44:07;;;;;;;;;;;26.90;41.30;;;;;;5077975;28;19957;-74
2021/01/01 08:46:32;;;;;;;;;;;26.90;41.20;;;;;;5082678;28;19942;-74
2021/01/01 08:49:11;;;;;;;;;;;26.90;41.20;;;;;;5094626;28;19912;-74
2021/01/01 08:51:36;;;;;;;;;;;26.90;41.20;;;;;;5094229;28;19919;-75
2021/01/01 08:54:02;;;;;;;;;;;26.90;41.20;;;;;;5094332;28;19908;-75
2021/01/01 08:56:27;;;;;;;;;;;26.90;41.20;;;;;;5094168;28;20277;-75
2021/01/01 08:59:08;;;;;;;;;;;26.90;41.20;;;;;;5092819;28;19908;-75
2021/01/01 09:01:34;;;;;;;;;;;26.90;41.10;;;;;;5071032;28;19970;-76
2021/01/01 09:04:02;;;;;;;;;;;26.90;41.10;;;;;;5075010;28;19908;-77
2021/01/01 09:06:28;;;;;;;;;;;26.90;41.00;;;;;;5074774;28;19948;-77
2021/01/01 09:09:06;;;;;;;;;;;26.90;41.00;;;;;;5093641;28;19916;-76
2021/01/01 09:11:32;;;;;;;;;;;26.90;41.00;;;;;;5093729;28;20693;-76
2021/01/01 09:14:01;;;;;;;;;;;26.90;41.00;;;;;;5075994;28;19916;-76
2021/01/01 09:16:26;;;;;;;;;;;26.90;41.00;;;;;;5078548;28;20007;-76
2021/01/01 09:18:51;;;;;;;;;;;26.90;40.90;;;;;;5094067;28;19966;-76
2021/01/01 09:21:17;;;;;;;;;;;26.90;40.90;;;;;;5093822;28;19912;-76
2021/01/01 09:23:49;;;;;;;;;;;26.90;40.90;;;;;;5093644;28;19912;-77
2021/01/01 09:26:20;;;;;;;;;;;26.90;40.90;;;;;;5081130;28;20324;-76
2021/01/01 09:28:45;;;;;;;;;;;26.90;40.90;;;;;;5073240;28;20386;-77
2021/01/01 09:31:13;;;;;;;;;;;26.90;40.90;;;;;;5073600;28;19916;-77
2021/01/01 09:33:39;;;;;;;;;;;26.90;40.90;;;;;;5081245;28;20377;-76
2021/01/01 09:36:04;;;;;;;;;;;26.90;40.80;;;;;;5081522;28;19923;-77
2021/01/01 09:38:30;;;;;;;;;;;26.90;40.80;;;;;;5076005;28;20251;-77
2021/01/01 09:40:55;;;;;;;;;;;26.90;40.70;;;;;;5093703;28;19908;-77
2021/01/01 09:43:21;;;;;;;;;;;26.90;40.70;;;;;;5093566;28;20325;-78
2021/01/01 09:45:46;;;;;;;;;;;26.90;40.70;;;;;;5093316;28;19920;-78
2021/01/01 09:48:12;;;;;;;;;;;26.90;40.70;;;;;;5089948;28;19912;-78
2021/01/01 09:50:37;;;;;;;;;;;26.90;40.70;;;;;;5093264;28;20323;-75
2021/01/01 09:53:03;;;;;;;;;;;26.90;40.70;;;;;;5093250;28;19919;-77
2021/01/01 09:55:28;;;;;;;;;;;26.90;40.70;;;;;;5087859;28;19919;-76
2021/01/01 09:57:54;;;;;;;;;;;26.90;40.80;;;;;;5093422;28;19912;-76
2021/01/01 10:00:20;;;;;;;;;;;26.90;40.70;;;;;;5093121;28;20367;-77
2021/01/01 10:02:45;;;;;;;;;;;26.90;40.60;;;;;;5092331;28;19999;-77
2021/01/01 10:05:11;;;;;;;;;;;26.90;40.60;;;;;;5091655;28;19908;-76
2021/01/01 10:07:36;;;;;;;;;;;26.90;40.60;;;;;;5073124;28;19995;-75
2021/01/01 10:10:05;;;;;;;;;;;26.90;40.60;;;;;;5074749;28;19908;-76
2021/01/01 10:12:31;;;;;;;;;;;26.90;40.60;;;;;;5093245;28;20290;-76
2021/01/01 10:14:58;;;;;;;;;;;26.80;40.60;;;;;;5093279;28;19915;-76
2021/01/01 10:17:24;;;;;;;;;;;26.80;40.60;;;;;;5093247;28;19919;-75
2021/01/01 10:19:49;;;;;;;;;;;26.80;40.60;;;;;;5093010;28;20286;-76
2021/01/01 10:22:15;;;;;;;;;;;26.80;40.60;;;;;;5093194;28;19915;-75
2021/01/01 10:24:40;;;;;;;;;;;26.80;40.60;;;;;;5081886;28;19913;-75
2021/01/01 10:27:05;;;;;;;;;;;26.80;40.60;;;;;;5072595;28;20345;-76
2021/01/01 10:29:31;;;;;;;;;;;26.80;40.50;;;;;;5072784;28;19924;-77
2021/01/01 10:32:26;;;;;;;;;;;26.80;40.60;;;;;;5086965;28;19918;-77
2021/01/01 10:34:51;;;;;;;;;;;26.80;40.60;;;;;;5050331;28;19913;-77
2021/01/01 10:37:17;;;;;;;;;;;26.80;40.50;;;;;;5052789;28;19909;-77
2021/01/01 10:39:42;;;;;;;;;;;26.90;40.50;;;;;;5052518;28;20356;-77
2021/01/01 10:42:08;;;;;;;;;;;26.90;40.50;;;;;;5052870;28;19909;-77
2021/01/01 10:44:33;;;;;;;;;;;26.90;40.50;;;;;;5089119;28;20332;-77
2021/01/01 10:46:59;;;;;;;;;;;26.90;40.50;;;;;;5096489;28;19919;-77
2021/01/01 10:49:24;;;;;;;;;;;26.90;40.50;;;;;;5096888;28;19920;-77
2021/01/01 10:51:50;;;;;;;;;;;26.90;40.40;;;;;;5089033;28;20357;-77
2021/01/01 10:54:15;;;;;;;;;;;26.90;40.40;;;;;;5076345;28;19909;-76
2021/01/01 10:56:41;;;;;;;;;;;26.80;40.40;;;;;;5076358;28;19944;-76
2021/01/01 10:59:06;;;;;;;;;;;26.80;40.30;;;;;;5078775;28;20385;-77
2021/01/01 11:01:32;;;;;;;;;;;26.90;40.40;;;;;;5089343;28;19995;-77
2021/01/01 11:03:58;;;;;;;;;;;26.80;40.40;;;;;;5086838;28;19916;-77
2021/01/01 11:06:23;;;;;;;;;;;26.90;40.50;;;;;;5076227;28;20598;-76
2021/01/01 11:08:49;;;;;;;;;;;26.90;40.30;;;;;;5076286;28;19919;-75
2021/01/01 11:11:19;;;;;;;;;;;26.80;40.30;;;;;;5077084;28;20320;-76
2021/01/01 11:13:51;;;;;;;;;;;26.90;40.40;;;;;;5076128;28;20003;-76
2021/01/01 12:22:13;;;;;;;;;;;27.00;40.40;;;;;;5074683;28;19909;-78
2021/01/01 12:24:48;;;;;;;;;;;27.00;40.30;;;;;;5070557;28;19995;-71
2021/01/01 12:27:17;;;;;;;;;;;27.00;40.30;;;;;;5068857;28;19978;-74
2021/01/01 12:29:43;;;;;;;;;;;27.10;40.20;;;;;;5054815;28;19909;-67
2021/01/01 12:32:09;;;;;;;;;;;27.10;40.10;;;;;;5054508;28;19931;-64
2021/01/01 12:34:34;;;;;;;;;;;27.10;40.10;;;;;;5097219;28;19923;-61
2021/01/01 12:37:00;;;;;;;;;;;27.20;40.00;;;;;;5074592;28;19995;-62
2021/01/01 12:39:25;;;;;;;;;;;27.20;40.00;;;;;;5074572;28;19912;-62
2021/01/01 12:41:51;;;;;;;;;;;27.20;40.00;;;;;;5083232;28;19915;-62
2021/01/01 12:44:16;;;;;;;;;;;27.20;40.00;;;;;;5094693;28;19916;-68
2021/01/01 12:46:42;;;;;;;;;;;27.20;40.00;;;;;;5094491;28;20290;-61
2021/01/01 12:49:07;;;;;;;;;;;27.20;40.00;;;;;;5094298;28;19908;-58
2021/01/01 12:51:33;;;;;;;;;;;27.20;40.20;;;;;;5094571;28;19915;-70
2021/01/01 12:53:58;;;;;;;;;;;27.10;40.10;;;;;;5094242;28;19908;-68
2021/01/01 12:56:24;;;;;;;;;;;27.20;40.00;;;;;;5094016;28;20006;-71
2021/01/01 12:58:49;;;;;;;;;;;27.20;40.00;;;;;;5094587;28;19952;-67
2021/01/01 13:01:15;;;;;;;;;;;27.20;40.00;;;;;;5094274;28;20328;-61
2021/01/01 13:03:40;;;;;;;;;;;27.30;40.00;;;;;;5088923;28;19919;-60
2021/01/01 13:06:06;;;;;;;;;;;27.20;40.70;;;;;;5073977;28;19920;-66
2021/01/01 13:08:31;;;;;;;;;;;27.20;40.80;;;;;;5082116;28;19916;-67
2021/01/01 13:10:57;;;;;;;;;;;27.30;41.60;;;;;;5094015;28;19919;-61
2021/01/01 13:13:22;;;;;;;;;;;27.40;41.50;;;;;;5091087;28;19935;-64
2021/01/01 13:15:48;;;;;;;;;;;27.50;41.40;;;;;;5073553;28;19955;-71
2021/01/01 13:18:13;;;;;;;;;;;27.50;41.60;;;;;;5073708;28;19924;-61
2021/01/01 13:20:40;;;;;;;;;;;27.40;41.90;;;;;;5076162;28;20283;-61
2021/01/01 13:23:06;;;;;;;;;;;27.50;42.20;;;;;;5073678;28;19909;-62
2021/01/01 13:25:32;;;;;;;;;;;27.50;42.10;;;;;;5073537;28;20278;-62
2021/01/01 13:27:58;;;;;;;;;;;27.40;42.00;;;;;;5073447;28;20377;-65
2021/01/01 13:30:24;;;;;;;;;;;27.50;42.50;;;;;;5074737;28;20278;-69
2021/01/01 13:32:49;;;;;;;;;;;27.50;42.60;;;;;;5077995;28;19912;-61
2021/01/01 13:35:15;;;;;;;;;;;27.50;42.30;;;;;;5088441;28;20367;-63
2021/01/01 13:37:40;;;;;;;;;;;27.50;42.70;;;;;;5076431;28;19912;-61
2021/01/01 13:40:06;;;;;;;;;;;27.50;42.60;;;;;;5091646;28;19956;-62
2021/01/01 13:42:31;;;;;;;;;;;27.50;42.40;;;;;;5093668;28;20362;-60
2021/01/01 13:44:57;;;;;;;;;;;27.40;42.40;;;;;;5093228;28;19912;-59
2021/01/01 13:47:24;;;;;;;;;;;27.40;42.80;;;;;;5093205;28;19926;-64
2021/01/01 13:49:49;;;;;;;;;;;27.40;43.10;;;;;;5091646;28;19908;-50
2021/01/01 13:52:16;;;;;;;;;;;27.40;42.90;;;;;;5074289;28;19912;-79
2021/01/01 13:54:41;;;;;;;;;;;27.30;43.00;;;;;;5073362;28;19978;-69
2021/01/01 13:57:07;;;;;;;;;;;27.30;43.00;;;;;;5073266;28;20677;-72
2021/01/01 13:59:32;;;;;;;;;;;27.30;43.00;;;;;;5073297;28;19958;-66
2021/01/01 14:01:57;;;;;;;;;;;27.40;42.80;;;;;;5074506;28;20126;-67
2021/01/01 14:04:23;;;;;;;;;;;27.30;43.00;;;;;;5076830;28;19957;-69
2021/01/01 14:06:48;;;;;;;;;;;27.20;43.10;;;;;;5093139;28;19916;-65
2021/01/01 14:09:14;;;;;;;;;;;27.30;43.10;;;;;;5093134;28;20314;-67
2021/01/01 14:11:45;;;;;;;;;;;27.30;43.00;;;;;;5093322;28;19908;-62
2021/01/01 14:14:10;;;;;;;;;;;27.30;42.90;;;;;;5093098;28;20285;-69
2021/01/01 14:16:36;;;;;;;;;;;27.40;42.80;;;;;;5093104;28;19908;-71
2021/01/01 14:19:01;;;;;;;;;;;27.40;42.80;;;;;;5085999;28;20329;-67
2021/01/01 14:21:27;;;;;;;;;;;27.40;42.70;;;;;;5077023;28;20006;-67
2021/01/01 14:23:53;;;;;;;;;;;27.50;42.80;;;;;;5077125;28;20521;-67
2021/01/01 14:26:18;;;;;;;;;;;27.50;42.70;;;;;;5076727;28;20387;-61
2021/01/01 14:28:44;;;;;;;;;;;27.50;42.60;;;;;;5076745;28;19920;-63
2021/01/01 14:31:09;;;;;;;;;;;27.50;42.60;;;;;;5089659;28;19912;-60
2021/01/01 14:33:34;;;;;;;;;;;27.50;42.60;;;;;;5097036;28;19912;-69
2021/01/01 14:36:00;;;;;;;;;;;27.50;42.70;;;;;;5096209;28;20405;-71
2021/01/01 14:38:25;;;;;;;;;;;27.50;42.70;;;;;;5096954;28;19962;-69
2021/01/01 14:40:51;;;;;;;;;;;27.50;42.70;;;;;;5096832;28;19912;-63
2021/01/01 14:43:16;;;;;;;;;;;27.50;42.70;;;;;;5096996;28;19908;-67
2021/01/01 14:45:42;;;;;;;;;;;27.50;42.70;;;;;;5096776;28;20430;-60
2021/01/01 14:48:07;;;;;;;;;;;27.50;42.70;;;;;;5078985;28;19920;-66
2021/01/01 14:50:33;;;;;;;;;;;27.40;42.90;;;;;;5076636;28;19908;-67
2021/01/01 14:52:59;;;;;;;;;;;27.40;42.90;;;;;;5076456;28;20355;-67
2021/01/01 14:55:24;;;;;;;;;;;27.30;42.70;;;;;;5076405;28;20370;-66
2021/01/01 14:57:50;;;;;;;;;;;27.40;42.70;;;;;;5076408;28;19915;-65
2021/01/01 15:00:15;;;;;;;;;;;27.30;42.60;;;;;;5080861;28;20358;-65
2021/01/01 15:02:41;;;;;;;;;;;27.30;42.60;;;;;;5095647;28;19915;-67
2021/01/01 15:05:06;;;;;;;;;;;27.30;42.60;;;;;;5086422;28;19912;-62
2021/01/01 15:07:32;;;;;;;;;;;27.20;42.40;;;;;;5075877;28;20332;-66
2021/01/01 15:09:57;;;;;;;;;;;27.30;42.50;;;;;;5091824;28;19919;-67
2021/01/01 15:12:23;;;;;;;;;;;27.30;42.30;;;;;;5096062;28;19912;-66
2021/01/01 15:14:48;;;;;;;;;;;27.40;42.40;;;;;;5096036;28;19912;-66
2021/01/01 15:17:14;;;;;;;;;;;27.40;42.30;;;;;;5090269;28;20007;-63